createdAt,value
2022-09-25T00:00:57.826Z,82.70
2022-09-25T00:03:26.786Z,82.60
2022-09-25T00:06:00.200Z,82.70
2022-09-25T00:08:26.869Z,82.70
2022-09-25T00:10:53.711Z,82.70
2022-09-25T00:13:21.644Z,82.80
2022-09-25T00:15:53.620Z,82.80
2022-09-25T00:18:39.488Z,82.60
2022-09-25T00:21:07.553Z,82.70
2022-09-25T00:23:34.525Z,82.60
2022-09-25T00:26:08.805Z,82.50
2022-09-25T00:28:36.764Z,82.60
2022-09-25T00:31:07.372Z,82.60
2022-09-25T00:33:34.389Z,82.60
2022-09-25T00:36:07.015Z,82.70
2022-09-25T00:38:35.410Z,83.00
2022-09-25T00:41:03.177Z,82.60
2022-09-25T00:43:41.807Z,82.60
2022-09-25T00:46:30.707Z,82.50
2022-09-25T00:49:12.423Z,82.30
2022-09-25T00:51:42.629Z,82.40
2022-09-25T00:54:23.063Z,82.50
2022-09-25T00:56:52.633Z,82.30
2022-09-25T00:59:27.676Z,82.50
2022-09-25T01:01:55.245Z,82.60
2022-09-25T01:04:23.048Z,82.80
2022-09-25T01:06:52.904Z,82.80
2022-09-25T01:09:19.971Z,82.80
2022-09-25T01:11:47.275Z,82.80
2022-09-25T01:14:17.376Z,82.90
2022-09-25T01:16:51.167Z,82.90
2022-09-25T01:19:55.796Z,82.80
2022-09-25T01:22:41.344Z,82.70
2022-09-25T01:25:32.920Z,82.80
2022-09-25T01:28:25.882Z,82.70
2022-09-25T01:31:02.152Z,83.30
2022-09-25T01:33:35.626Z,82.80
2022-09-25T01:36:12.058Z,82.80
2022-09-25T01:38:43.971Z,82.90
2022-09-25T01:41:17.009Z,82.80
2022-09-25T01:43:46.740Z,82.90
2022-09-25T01:46:21.696Z,83.00
2022-09-25T01:48:54.642Z,83.00
2022-09-25T01:51:36.663Z,83.00
2022-09-25T01:54:10.225Z,82.90
2022-09-25T01:56:59.298Z,82.90
2022-09-25T02:00:01.313Z,82.70
2022-09-25T02:02:33.783Z,83.30
2022-09-25T02:05:27.030Z,82.90
2022-09-25T02:08:03.651Z,82.80
2022-09-25T02:10:36.552Z,83.00
2022-09-25T02:13:11.012Z,83.00
2022-09-25T02:15:49.628Z,83.00
2022-09-25T02:18:50.629Z,82.90
2022-09-25T02:21:29.248Z,83.00
2022-09-25T02:24:11.441Z,82.80
2022-09-25T02:26:38.341Z,83.00
2022-09-25T02:29:05.945Z,83.10
2022-09-25T02:32:00.318Z,83.20
2022-09-25T02:34:27.044Z,83.30
2022-09-25T02:36:53.720Z,83.30
2022-09-25T02:39:24.532Z,83.30
2022-09-25T02:42:09.684Z,83.20
2022-09-25T02:44:36.336Z,83.20
2022-09-25T02:47:40.264Z,83.10
2022-09-25T02:50:25.528Z,83.10
2022-09-25T02:53:13.384Z,83.10
2022-09-25T02:56:09.146Z,83.00
2022-09-25T02:58:44.881Z,83.20
2022-09-25T03:01:15.353Z,83.20
2022-09-25T03:03:45.195Z,83.30
2022-09-25T03:06:11.916Z,83.30
2022-09-25T03:08:44.652Z,83.40
2022-09-25T03:11:16.794Z,83.60
2022-09-25T03:13:44.339Z,83.80
2022-09-25T03:16:18.577Z,83.90
2022-09-25T03:18:45.969Z,83.90
2022-09-25T03:21:13.124Z,83.90
2022-09-25T03:23:39.865Z,83.90
2022-09-25T03:26:07.618Z,83.60
2022-09-25T03:28:35.222Z,83.80
2022-09-25T03:31:07.230Z,83.70
2022-09-25T03:33:39.983Z,83.70
2022-09-25T03:36:21.199Z,83.80
2022-09-25T03:38:50.522Z,83.80
2022-09-25T03:41:21.170Z,84.00
2022-09-25T03:43:51.431Z,83.90
2022-09-25T03:46:25.843Z,83.70
2022-09-25T03:48:53.558Z,83.80
2022-09-25T03:51:20.656Z,83.70
2022-09-25T03:53:48.505Z,84.20
2022-09-25T03:56:18.259Z,84.00
2022-09-25T03:58:44.955Z,84.00
2022-09-25T04:01:11.728Z,84.10
2022-09-25T04:03:39.391Z,84.00
2022-09-25T04:06:08.299Z,84.00
2022-09-25T04:08:36.640Z,84.00
2022-09-25T04:11:04.360Z,84.10
2022-09-25T04:13:34.312Z,84.10
2022-09-25T04:16:03.528Z,84.20
2022-09-25T04:18:31.449Z,84.30
2022-09-25T04:21:03.301Z,84.40
2022-09-25T04:23:30.606Z,84.50
2022-09-25T04:25:57.824Z,84.70
2022-09-25T04:28:24.643Z,84.70
2022-09-25T04:30:51.593Z,84.40
2022-09-25T04:33:37.435Z,84.80
2022-09-25T04:36:05.021Z,84.90
2022-09-25T04:38:32.467Z,84.90
2022-09-25T04:41:00.111Z,84.90
2022-09-25T04:43:29.295Z,84.90
2022-09-25T04:46:00.237Z,84.90
2022-09-25T04:48:27.045Z,84.90
2022-09-25T04:50:53.730Z,84.90
2022-09-25T04:53:20.480Z,84.90
2022-09-25T04:55:48.025Z,84.90
2022-09-25T04:58:14.698Z,84.70
2022-09-25T05:00:42.571Z,84.70
2022-09-25T05:03:09.462Z,84.80
2022-09-25T05:05:36.272Z,84.80
2022-09-25T05:08:03.718Z,84.70
2022-09-25T05:10:34.348Z,84.60
2022-09-25T05:13:03.008Z,84.70
2022-09-25T05:15:31.625Z,85.30
2022-09-25T05:18:07.098Z,85.00
2022-09-25T05:20:36.074Z,84.90
2022-09-25T05:23:04.323Z,84.90
2022-09-25T05:25:32.211Z,84.90
2022-09-25T05:28:00.562Z,85.00
2022-09-25T05:30:30.286Z,85.20
2022-09-25T05:32:59.854Z,85.20
2022-09-25T05:35:29.795Z,85.30
2022-09-25T05:37:57.083Z,85.30
2022-09-25T05:40:24.373Z,85.20
2022-09-25T05:42:52.007Z,85.10
2022-09-25T05:45:20.640Z,85.00
2022-09-25T05:47:47.808Z,85.10
2022-09-25T05:50:15.624Z,85.00
2022-09-25T05:52:42.666Z,84.90
2022-09-25T05:55:10.637Z,85.00
2022-09-25T05:57:38.135Z,85.10
2022-09-25T06:00:08.113Z,85.10
2022-09-25T06:02:40.530Z,85.10
2022-09-25T06:05:08.950Z,85.00
2022-09-25T06:07:36.401Z,85.10
2022-09-25T06:10:03.764Z,85.10
2022-09-25T06:12:31.080Z,85.10
2022-09-25T06:14:58.093Z,85.10
2022-09-25T06:17:24.756Z,85.10
2022-09-25T06:19:51.371Z,85.20
2022-09-25T06:22:18.060Z,85.30
2022-09-25T06:24:45.443Z,85.40
2022-09-25T06:27:12.056Z,85.50
2022-09-25T06:29:38.683Z,85.60
2022-09-25T06:32:05.353Z,85.60
2022-09-25T06:34:32.086Z,85.60
2022-09-25T06:37:00.725Z,85.60
2022-09-25T06:39:27.456Z,85.50
2022-09-25T06:41:54.163Z,87.60
2022-09-25T06:44:22.377Z,88.50
2022-09-25T06:46:54.386Z,88.00
2022-09-25T06:49:21.819Z,86.70
2022-09-25T06:51:50.819Z,84.20
2022-09-25T06:54:17.857Z,82.60
2022-09-25T06:56:48.180Z,82.70
2022-09-25T06:59:14.893Z,81.70
2022-09-25T07:01:41.597Z,81.20
2022-09-25T07:04:08.373Z,81.20
2022-09-25T07:06:37.226Z,81.50
2022-09-25T07:09:04.014Z,81.80
2022-09-25T07:11:33.614Z,82.30
2022-09-25T07:14:00.620Z,82.70
2022-09-25T07:16:29.636Z,83.00
2022-09-25T07:19:01.004Z,83.20
2022-09-25T07:21:30.437Z,83.30
2022-09-25T07:23:58.834Z,83.30
2022-09-25T07:26:28.335Z,83.40
2022-09-25T07:28:57.637Z,83.50
2022-09-25T07:31:28.761Z,83.60
2022-09-25T07:33:55.791Z,83.70
2022-09-25T07:36:23.108Z,83.80
2022-09-25T07:38:53.471Z,83.70
2022-09-25T07:41:22.686Z,83.70
2022-09-25T07:44:40.057Z,83.80
2022-09-25T07:46:44.686Z,83.70
2022-09-25T07:49:12.279Z,83.90
2022-09-25T07:51:39.077Z,83.90
2022-09-25T07:54:05.820Z,83.90
2022-09-25T07:56:34.499Z,83.90
2022-09-25T07:59:01.287Z,83.80
2022-09-25T08:01:28.110Z,83.70
2022-09-25T08:03:54.903Z,83.70
2022-09-25T08:06:21.692Z,83.70
2022-09-25T08:08:48.385Z,83.80
2022-09-25T08:11:17.580Z,83.80
2022-09-25T08:13:45.208Z,83.70
2022-09-25T08:16:17.416Z,83.60
2022-09-25T08:18:46.293Z,83.40
2022-09-25T08:21:14.904Z,83.30
2022-09-25T08:23:47.647Z,83.00
2022-09-25T08:26:15.287Z,82.80
2022-09-25T08:28:42.321Z,83.00
2022-09-25T08:31:09.126Z,82.60
2022-09-25T08:33:36.520Z,82.40
2022-09-25T08:36:05.323Z,82.00
2022-09-25T08:38:35.745Z,81.90
2022-09-25T08:41:04.485Z,81.60
2022-09-25T08:43:33.254Z,81.40
2022-09-25T08:46:21.467Z,80.70
2022-09-25T08:49:01.906Z,80.50
2022-09-25T08:51:31.864Z,80.30
2022-09-25T08:53:59.914Z,80.20
2022-09-25T08:56:32.506Z,80.10
2022-09-25T08:59:28.537Z,80.00
2022-09-25T09:02:03.586Z,79.70
2022-09-25T09:04:38.338Z,78.90
2022-09-25T09:07:26.420Z,78.30
2022-09-25T09:10:16.370Z,78.20
2022-09-25T09:12:47.121Z,78.60
2022-09-25T09:15:29.144Z,78.20
2022-09-25T09:17:58.451Z,78.20
2022-09-25T09:20:46.099Z,78.30
2022-09-25T09:23:18.628Z,78.70
2022-09-25T09:26:05.255Z,77.90
2022-09-25T09:28:48.826Z,77.00
2022-09-25T09:31:42.676Z,76.00
2022-09-25T09:34:46.489Z,76.20
2022-09-25T09:37:40.087Z,75.60
2022-09-25T09:40:25.568Z,74.20
2022-09-25T09:43:31.260Z,73.90
2022-09-25T09:46:21.661Z,73.20
2022-09-25T09:49:07.331Z,74.00
2022-09-25T09:52:00.962Z,73.10
2022-09-25T09:54:55.613Z,72.80
2022-09-25T09:57:26.282Z,72.50
2022-09-25T10:00:00.562Z,71.90
2022-09-25T10:02:45.116Z,71.80
2022-09-25T10:05:30.198Z,72.10
2022-09-25T10:07:57.025Z,72.10
2022-09-25T10:10:29.064Z,72.10
2022-09-25T10:12:55.945Z,73.40
2022-09-25T10:15:43.113Z,70.80
2022-09-25T10:18:10.952Z,72.00
2022-09-25T10:20:48.039Z,70.10
2022-09-25T10:23:32.451Z,69.50
2022-09-25T10:25:59.231Z,69.50
2022-09-25T10:28:34.882Z,69.40
2022-09-25T10:31:06.051Z,69.50
2022-09-25T10:33:33.120Z,68.60
2022-09-25T10:36:00.016Z,67.90
2022-09-25T10:38:48.172Z,68.10
2022-09-25T10:41:19.838Z,68.10
2022-09-25T10:44:02.484Z,68.40
2022-09-25T10:46:52.790Z,68.50
2022-09-25T10:49:42.244Z,68.30
2022-09-25T10:52:11.493Z,68.10
2022-09-25T10:54:44.573Z,68.00
2022-09-25T10:57:34.608Z,67.90
2022-09-25T11:00:04.560Z,67.80
2022-09-25T11:02:39.010Z,67.70
2022-09-25T11:05:08.918Z,67.60
2022-09-25T11:07:35.580Z,67.60
2022-09-25T11:10:02.485Z,67.30
2022-09-25T11:12:29.827Z,66.00
2022-09-25T11:15:06.004Z,65.10
2022-09-25T11:17:41.101Z,64.70
2022-09-25T11:20:17.551Z,64.50
2022-09-25T11:23:09.360Z,64.40
2022-09-25T11:26:06.977Z,64.20
2022-09-25T11:28:42.928Z,64.60
2022-09-25T11:31:46.410Z,64.40
2022-09-25T11:34:24.906Z,64.50
2022-09-25T11:37:02.050Z,64.60
2022-09-25T11:40:00.918Z,63.20
2022-09-25T11:42:53.304Z,63.20
2022-09-25T11:45:39.164Z,62.70
2022-09-25T11:48:22.681Z,61.50
2022-09-25T11:50:57.042Z,62.30
2022-09-25T11:54:17.853Z,61.50
2022-09-25T11:56:57.421Z,61.60
2022-09-25T11:59:26.857Z,61.70
2022-09-25T12:02:03.600Z,61.90
2022-09-25T12:04:56.647Z,61.40
2022-09-25T12:07:40.534Z,60.50
2022-09-25T12:10:15.556Z,58.10
2022-09-25T12:12:42.487Z,57.70
2022-09-25T12:15:34.053Z,58.30
2022-09-25T12:18:19.981Z,56.60
2022-09-25T12:20:49.335Z,57.70
2022-09-25T12:23:37.887Z,57.30
2022-09-25T12:26:31.869Z,55.70
2022-09-25T12:29:32.257Z,56.70
2022-09-25T12:32:17.016Z,54.30
2022-09-25T12:35:08.758Z,53.00
2022-09-25T12:37:53.915Z,53.70
2022-09-25T12:40:32.984Z,54.60
2022-09-25T12:43:33.440Z,55.60
2022-09-25T12:46:26.062Z,56.80
2022-09-25T12:49:05.046Z,57.30
2022-09-25T12:51:57.521Z,57.70
2022-09-25T12:54:48.395Z,58.20
2022-09-25T12:57:40.052Z,58.80
2022-09-25T13:00:21.378Z,59.30
2022-09-25T13:03:13.690Z,58.80
2022-09-25T13:05:59.716Z,58.20
2022-09-25T13:08:34.136Z,58.00
2022-09-25T13:11:12.603Z,57.80
2022-09-25T13:13:47.298Z,57.90
2022-09-25T13:16:15.850Z,57.10
2022-09-25T13:19:08.706Z,56.50
2022-09-25T13:21:37.593Z,55.40
2022-09-25T13:24:08.577Z,54.70
2022-09-25T13:26:47.780Z,55.20
2022-09-25T13:29:20.842Z,55.60
2022-09-25T13:31:48.150Z,56.10
2022-09-25T13:34:22.181Z,56.30
2022-09-25T13:36:52.637Z,56.40
2022-09-25T13:39:51.433Z,56.90
2022-09-25T13:42:26.133Z,56.70
2022-09-25T13:45:22.268Z,55.30
2022-09-25T13:48:08.723Z,55.00
2022-09-25T13:50:40.933Z,54.70
2022-09-25T13:53:17.238Z,54.70
2022-09-25T13:56:03.827Z,53.00
2022-09-25T13:58:51.664Z,52.70
2022-09-25T14:01:37.383Z,52.70
2022-09-25T14:04:16.122Z,53.70
2022-09-25T14:06:48.659Z,53.20
2022-09-25T14:09:20.275Z,52.50
2022-09-25T14:12:04.565Z,51.20
2022-09-25T14:14:55.312Z,51.00
2022-09-25T14:17:24.738Z,52.00
2022-09-25T14:19:54.546Z,52.50
2022-09-25T14:22:35.499Z,53.40
2022-09-25T14:25:02.156Z,53.60
2022-09-25T14:27:29.063Z,54.80
2022-09-25T14:30:13.769Z,54.70
2022-09-25T14:33:22.045Z,54.80
2022-09-25T14:35:58.323Z,55.00
2022-09-25T14:38:37.221Z,54.70
2022-09-25T14:41:22.038Z,54.40
2022-09-25T14:44:16.495Z,54.10
2022-09-25T14:46:43.671Z,54.00
2022-09-25T14:49:24.166Z,53.60
2022-09-25T14:51:54.157Z,53.80
2022-09-25T14:54:24.939Z,53.30
2022-09-25T14:56:56.087Z,52.80
2022-09-25T14:59:46.255Z,52.80
2022-09-25T15:02:37.979Z,52.80
2022-09-25T15:05:33.130Z,53.00
2022-09-25T15:08:02.253Z,53.40
2022-09-25T15:10:37.969Z,51.30
2022-09-25T15:13:15.769Z,48.70
2022-09-25T15:16:05.828Z,47.50
2022-09-25T15:18:37.728Z,47.70
2022-09-25T15:21:07.416Z,49.00
2022-09-25T15:23:35.303Z,48.90
2022-09-25T15:26:02.212Z,48.30
2022-09-25T15:28:28.971Z,49.10
2022-09-25T15:30:58.139Z,50.20
2022-09-25T15:33:32.369Z,50.20
2022-09-25T15:36:03.362Z,49.90
2022-09-25T15:38:35.533Z,50.70
2022-09-25T15:41:03.296Z,49.50
2022-09-25T15:43:30.107Z,48.00
2022-09-25T15:46:09.070Z,47.30
2022-09-25T15:48:41.102Z,45.30
2022-09-25T15:51:20.300Z,42.20
2022-09-25T15:53:53.361Z,41.60
2022-09-25T15:56:25.153Z,41.90
2022-09-25T15:59:02.346Z,43.40
2022-09-25T16:01:50.572Z,44.90
2022-09-25T16:04:39.145Z,46.90
2022-09-25T16:07:28.831Z,49.30
2022-09-25T16:09:58.384Z,51.20
2022-09-25T16:12:30.746Z,53.10
2022-09-25T16:14:58.375Z,54.40
2022-09-25T16:17:33.153Z,55.80
2022-09-25T16:20:28.115Z,56.90
2022-09-25T16:22:59.403Z,58.10
2022-09-25T16:25:35.926Z,60.00
2022-09-25T16:28:16.409Z,60.40
2022-09-25T16:31:08.210Z,61.20
2022-09-25T16:33:40.157Z,62.10
2022-09-25T16:36:17.625Z,62.50
2022-09-25T16:39:08.229Z,63.00
2022-09-25T16:41:36.826Z,62.90
2022-09-25T16:44:19.480Z,63.70
2022-09-25T16:46:47.602Z,63.80
2022-09-25T16:49:14.458Z,64.70
2022-09-25T16:51:45.417Z,64.30
2022-09-25T16:54:14.535Z,63.80
2022-09-25T16:56:43.114Z,64.40
2022-09-25T16:59:25.116Z,64.70
2022-09-25T17:01:55.777Z,65.30
2022-09-25T17:04:28.612Z,65.50
2022-09-25T17:06:58.161Z,65.80
2022-09-25T17:09:27.125Z,66.00
2022-09-25T17:12:01.452Z,66.20
2022-09-25T17:14:31.272Z,66.90
2022-09-25T17:16:58.880Z,66.40
2022-09-25T17:19:25.587Z,66.70
2022-09-25T17:21:53.750Z,67.00
2022-09-25T17:24:23.670Z,67.20
2022-09-25T17:26:51.872Z,67.40
2022-09-25T17:29:19.676Z,67.50
2022-09-25T17:31:46.675Z,67.80
2022-09-25T17:34:24.749Z,68.10
2022-09-25T17:36:51.968Z,68.40
2022-09-25T17:39:18.727Z,68.60
2022-09-25T17:41:45.768Z,68.90
2022-09-25T17:44:16.884Z,69.00
2022-09-25T17:46:44.298Z,69.10
2022-09-25T17:49:11.403Z,69.60
2022-09-25T17:51:38.369Z,69.80
2022-09-25T17:54:06.387Z,70.00
2022-09-25T17:56:34.714Z,69.40
2022-09-25T17:59:02.218Z,70.10
2022-09-25T18:01:34.238Z,70.10
2022-09-25T18:04:25.503Z,70.40
2022-09-25T18:06:52.319Z,70.20
2022-09-25T18:09:19.057Z,70.50
2022-09-25T18:11:45.864Z,70.80
2022-09-25T18:14:14.071Z,71.00
2022-09-25T18:16:43.075Z,71.00
2022-09-25T18:19:33.840Z,71.10
2022-09-25T18:22:19.577Z,71.20
2022-09-25T18:24:56.166Z,71.20
2022-09-25T18:27:29.412Z,71.30
2022-09-25T18:29:56.022Z,71.30
2022-09-25T18:32:23.988Z,70.70
2022-09-25T18:34:51.331Z,71.30
2022-09-25T18:37:17.956Z,71.30
2022-09-25T18:39:46.074Z,71.40
2022-09-25T18:42:12.717Z,71.40
2022-09-25T18:44:42.704Z,71.40
2022-09-25T18:47:10.491Z,71.50
2022-09-25T18:49:37.847Z,71.50
2022-09-25T18:52:04.562Z,71.50
2022-09-25T18:54:31.328Z,71.70
2022-09-25T18:56:58.554Z,71.70
2022-09-25T18:59:26.476Z,71.70
2022-09-25T19:01:55.584Z,71.80
2022-09-25T19:04:22.952Z,72.00
2022-09-25T19:06:49.644Z,72.00
2022-09-25T19:09:17.340Z,72.00
2022-09-25T19:11:45.217Z,72.00
2022-09-25T19:14:12.879Z,72.10
2022-09-25T19:16:39.617Z,72.10
2022-09-25T19:19:07.403Z,72.00
2022-09-25T19:21:34.819Z,72.10
2022-09-25T19:24:01.889Z,72.20
2022-09-25T19:26:28.605Z,72.10
2022-09-25T19:28:55.306Z,72.20
2022-09-25T19:31:24.689Z,72.10
2022-09-25T19:33:52.800Z,72.10
2022-09-25T19:36:26.288Z,72.10
2022-09-25T19:38:54.291Z,72.20
2022-09-25T19:41:27.459Z,72.10
2022-09-25T19:43:59.208Z,72.10
2022-09-25T19:46:27.892Z,72.00
2022-09-25T19:48:55.026Z,72.00
2022-09-25T19:51:24.140Z,72.10
2022-09-25T19:53:51.574Z,72.10
2022-09-25T19:56:21.907Z,72.10
2022-09-25T19:58:50.683Z,72.20
2022-09-25T20:01:20.310Z,72.30
2022-09-25T20:03:47.141Z,72.40
2022-09-25T20:06:15.927Z,72.50
2022-09-25T20:08:43.161Z,72.50
2022-09-25T20:11:23.959Z,72.70
2022-09-25T20:13:52.275Z,72.60
2022-09-25T20:16:22.417Z,72.80
2022-09-25T20:18:50.492Z,72.90
2022-09-25T20:21:21.017Z,73.00
2022-09-25T20:23:57.478Z,73.20
2022-09-25T20:26:25.198Z,73.20
2022-09-25T20:28:54.449Z,73.30
2022-09-25T20:31:21.895Z,73.30
2022-09-25T20:33:49.079Z,73.30
2022-09-25T20:36:16.499Z,73.30
2022-09-25T20:38:45.159Z,73.40
2022-09-25T20:41:12.922Z,73.50
2022-09-25T20:43:40.602Z,74.10
2022-09-25T20:46:10.959Z,73.70
2022-09-25T20:48:45.405Z,73.70
2022-09-25T20:51:15.156Z,73.70
2022-09-25T20:53:42.963Z,73.80
2022-09-25T20:56:11.032Z,73.80
2022-09-25T20:58:39.046Z,73.80
2022-09-25T21:01:12.200Z,73.90
2022-09-25T21:03:41.252Z,73.90
2022-09-25T21:06:18.381Z,73.90
2022-09-25T21:08:45.851Z,73.90
2022-09-25T21:11:13.096Z,74.00
2022-09-25T21:13:40.689Z,74.20
2022-09-25T21:16:14.103Z,74.30
2022-09-25T21:18:42.017Z,74.20
2022-09-25T21:21:13.798Z,74.10
2022-09-25T21:23:41.801Z,74.00
2022-09-25T21:26:13.593Z,74.10
2022-09-25T21:28:42.893Z,74.00
2022-09-25T21:31:14.789Z,74.00
2022-09-25T21:33:42.078Z,73.90
2022-09-25T21:36:15.169Z,74.00
2022-09-25T21:38:42.443Z,73.90
2022-09-25T21:41:12.804Z,73.90
2022-09-25T21:43:40.779Z,73.90
2022-09-25T21:46:10.831Z,73.80
2022-09-25T21:48:39.436Z,73.80
2022-09-25T21:51:07.796Z,73.90
2022-09-25T21:53:34.939Z,74.00
2022-09-25T21:56:04.332Z,74.00
2022-09-25T21:58:31.653Z,73.90
2022-09-25T22:01:09.023Z,74.10
2022-09-25T22:03:38.700Z,74.10
2022-09-25T22:06:11.015Z,74.20
2022-09-25T22:08:41.260Z,74.30
2022-09-25T22:11:08.858Z,74.20
2022-09-25T22:13:38.610Z,74.10
2022-09-25T22:16:15.117Z,74.20
2022-09-25T22:18:44.453Z,74.20
2022-09-25T22:21:12.685Z,74.40
2022-09-25T22:23:39.665Z,74.40
2022-09-25T22:26:06.242Z,74.50
2022-09-25T22:28:35.011Z,74.20
2022-09-25T22:31:14.805Z,74.50
2022-09-25T22:33:42.001Z,74.40
2022-09-25T22:36:10.020Z,74.40
2022-09-25T22:38:37.862Z,74.40
2022-09-25T22:41:07.183Z,74.30
2022-09-25T22:43:34.504Z,74.20
2022-09-25T22:46:01.226Z,74.20
2022-09-25T22:48:27.980Z,74.10
2022-09-25T22:50:55.541Z,74.00
2022-09-25T22:53:23.542Z,73.90
2022-09-25T22:55:50.976Z,73.90
2022-09-25T22:58:19.542Z,73.80
2022-09-25T23:00:50.405Z,73.80
2022-09-25T23:03:18.784Z,73.70
2022-09-25T23:05:45.560Z,73.70
2022-09-25T23:08:12.657Z,73.90
2022-09-25T23:11:05.669Z,73.90
2022-09-25T23:13:26.403Z,74.00
2022-09-25T23:15:53.171Z,74.00
2022-09-25T23:18:19.919Z,74.00
2022-09-25T23:20:52.551Z,74.00
2022-09-25T23:23:19.481Z,74.10
2022-09-25T23:25:46.520Z,74.20
2022-09-25T23:28:13.914Z,74.30
2022-09-25T23:30:40.677Z,74.40
2022-09-25T23:33:07.353Z,74.50
2022-09-25T23:35:34.509Z,74.60
2022-09-25T23:38:02.032Z,74.80
2022-09-25T23:40:29.093Z,74.90
2022-09-25T23:42:55.877Z,75.00
2022-09-25T23:45:22.663Z,75.10
2022-09-25T23:47:49.321Z,75.80
2022-09-25T23:50:16.057Z,75.30
2022-09-25T23:52:42.751Z,75.50
2022-09-25T23:55:09.785Z,75.50
2022-09-25T23:57:37.468Z,75.60
